Time;durP1;ratioP1;P1;durP2;ratioP2;P2;SDS_P1;SDS_P2;PMS_P1;PMS_P2;Temp;Humidity;BMP_temperature;BMP_pressure;BME280_temperature;BME280_humidity;BME280_pressure;Samples;Min_cycle;Max_cycle;Signal;HPM_P1;HPM_P2
2021/03/30 00:01:17;;;;;;;8.20;3.57;;;11.80;86.90;;;;;;5057004;28;20257;-63
2021/03/30 00:03:43;;;;;;;4.90;3.57;;;11.70;86.80;;;;;;5056429;28;20215;-63
2021/03/30 00:06:09;;;;;;;5.70;2.57;;;11.70;87.40;;;;;;5057096;28;20229;-61
2021/03/30 00:08:35;;;;;;;5.10;3.10;;;11.70;87.70;;;;;;5058286;28;20412;-63
2021/03/30 00:11:01;;;;;;;3.40;2.73;;;11.70;87.90;;;;;;5056973;28;20217;-62
2021/03/30 00:13:27;;;;;;;8.87;2.83;;;11.60;88.40;;;;;;5057747;28;20918;-62
2021/03/30 00:15:52;;;;;;;4.53;2.77;;;11.60;88.40;;;;;;5057292;28;20177;-61
2021/03/30 00:18:18;;;;;;;10.60;2.90;;;11.60;89.00;;;;;;5056812;28;20178;-63
2021/03/30 00:20:44;;;;;;;3.10;2.60;;;11.60;89.10;;;;;;5056287;28;20669;-62
2021/03/30 00:23:09;;;;;;;6.10;2.67;;;11.50;89.30;;;;;;5056271;28;20190;-63
2021/03/30 00:25:35;;;;;;;3.37;2.30;;;11.50;89.90;;;;;;5056323;28;20167;-63
2021/03/30 00:28:00;;;;;;;4.73;3.40;;;11.50;89.80;;;;;;5055244;28;20180;-62
2021/03/30 00:30:26;;;;;;;4.10;2.93;;;11.50;90.00;;;;;;5056124;28;20177;-63
2021/03/30 00:32:52;;;;;;;7.93;2.87;;;11.50;89.90;;;;;;5055876;28;20617;-63
2021/03/30 00:35:18;;;;;;;4.17;3.20;;;11.30;90.10;;;;;;5056324;28;20176;-63
2021/03/30 00:37:43;;;;;;;3.63;2.90;;;11.30;90.40;;;;;;5056082;28;20176;-61
2021/03/30 00:40:11;;;;;;;3.60;2.77;;;11.30;90.80;;;;;;5056376;28;20170;-62
2021/03/30 00:42:38;;;;;;;4.13;2.90;;;11.40;90.70;;;;;;5056170;28;20196;-64
2021/03/30 00:45:05;;;;;;;3.43;2.30;;;11.30;90.90;;;;;;5055017;28;20468;-63
2021/03/30 00:47:33;;;;;;;5.30;2.60;;;11.20;91.00;;;;;;5055745;28;20408;-63
2021/03/30 00:49:59;;;;;;;3.13;2.20;;;11.30;91.10;;;;;;5054442;28;20417;-63
2021/03/30 00:52:26;;;;;;;4.73;3.30;;;11.10;91.60;;;;;;5055342;28;20443;-63
2021/03/30 00:54:52;;;;;;;4.60;2.90;;;11.00;91.70;;;;;;5054628;28;20421;-63
2021/03/30 00:57:18;;;;;;;3.50;2.50;;;10.90;92.00;;;;;;5055690;28;20415;-63
2021/03/30 00:59:45;;;;;;;3.33;2.33;;;10.90;92.10;;;;;;5055860;28;20793;-63
2021/03/30 01:02:11;;;;;;;3.10;2.67;;;10.90;92.20;;;;;;5055735;28;20417;-63
2021/03/30 01:04:36;;;;;;;4.77;2.73;;;10.80;92.50;;;;;;5054833;28;20540;-63
2021/03/30 01:07:03;;;;;;;2.83;2.47;;;10.70;93.00;;;;;;5054483;28;20844;-64
2021/03/30 01:10:07;;;;;;;3.97;2.73;;;10.70;93.10;;;;;;5052766;28;20546;-64
2021/03/30 01:12:35;;;;;;;4.97;2.87;;;10.70;93.10;;;;;;5041171;28;20473;-63
2021/03/30 01:15:23;;;;;;;3.77;2.93;;;10.60;93.10;;;;;;5055551;28;20467;-63
2021/03/30 01:18:15;;;;;;;5.00;2.60;;;10.60;93.30;;;;;;5055597;28;20403;-62
2021/03/30 01:21:05;;;;;;;3.23;2.50;;;10.60;93.50;;;;;;5055646;28;20384;-63
2021/03/30 01:23:54;;;;;;;6.03;3.03;;;10.50;93.60;;;;;;5054911;28;20777;-63
2021/03/30 01:26:31;;;;;;;4.10;2.70;;;10.50;93.90;;;;;;5055016;28;20400;-63
2021/03/30 01:29:24;;;;;;;3.80;3.20;;;10.40;94.10;;;;;;5055189;28;20400;-63
2021/03/30 01:32:22;;;;;;;2.70;2.40;;;10.40;93.90;;;;;;5055371;28;20434;-63
2021/03/30 01:34:49;;;;;;;5.30;2.83;;;10.30;94.00;;;;;;5036819;28;20429;-64
2021/03/30 01:37:17;;;;;;;4.80;2.80;;;10.30;94.40;;;;;;5026976;28;20408;-63
2021/03/30 01:39:48;;;;;;;4.73;2.83;;;10.20;94.40;;;;;;5054576;28;20401;-63
2021/03/30 01:42:13;;;;;;;4.07;3.10;;;10.20;94.70;;;;;;5055742;28;20522;-63
2021/03/30 01:44:40;;;;;;;4.77;3.37;;;10.20;94.80;;;;;;5055683;28;20460;-62
2021/03/30 01:47:07;;;;;;;4.90;2.67;;;10.10;95.10;;;;;;5055643;28;20696;-64
2021/03/30 01:49:35;;;;;;;5.13;2.70;;;10.00;95.10;;;;;;5054474;28;20924;-63
2021/03/30 01:52:01;;;;;;;3.93;2.67;;;10.00;95.30;;;;;;5055724;28;20457;-63
2021/03/30 01:54:27;;;;;;;3.33;2.97;;;9.90;96.10;;;;;;5053698;28;20531;-62
2021/03/30 01:56:55;;;;;;;4.73;3.43;;;9.90;96.10;;;;;;5054592;28;20653;-63
2021/03/30 01:59:24;;;;;;;4.33;3.50;;;9.90;96.40;;;;;;5054866;28;20446;-63
2021/03/30 02:01:50;;;;;;;3.23;2.70;;;9.80;96.50;;;;;;5056831;28;20433;-63
2021/03/30 02:04:18;;;;;;;5.20;3.87;;;9.80;97.10;;;;;;5054387;28;20487;-63
2021/03/30 02:06:46;;;;;;;6.50;3.10;;;9.80;96.60;;;;;;5054596;28;20439;-63
2021/03/30 02:09:18;;;;;;;5.33;3.40;;;9.80;96.30;;;;;;5054142;28;20416;-63
2021/03/30 02:14:16;;;;;;;5.43;3.80;;;9.70;97.10;;;;;;5054460;28;20461;-63
2021/03/30 02:16:49;;;;;;;6.33;3.83;;;9.70;97.40;;;;;;5054471;28;20406;-63
2021/03/30 02:19:20;;;;;;;5.50;4.30;;;9.60;97.50;;;;;;5054184;28;20865;-62
2021/03/30 02:22:07;;;;;;;10.47;4.13;;;9.60;98.10;;;;;;5054535;28;20761;-63
2021/03/30 02:24:35;;;;;;;4.87;3.47;;;9.70;97.90;;;;;;5053676;28;21000;-63
2021/03/30 02:27:04;;;;;;;6.83;3.90;;;9.70;97.80;;;;;;5054338;28;20445;-63
2021/03/30 02:29:34;;;;;;;4.30;3.60;;;9.70;97.70;;;;;;5054448;28;20405;-62
2021/03/30 02:32:04;;;;;;;5.73;3.80;;;9.60;97.80;;;;;;5053810;28;20561;-63
2021/03/30 02:34:33;;;;;;;8.93;4.97;;;9.60;98.20;;;;;;5067891;23;20514;-63
2021/03/30 02:36:59;;;;;;;6.30;4.07;;;9.50;98.40;;;;;;5053977;28;20398;-63
2021/03/30 02:39:26;;;;;;;9.10;4.27;;;9.50;98.50;;;;;;5053367;28;20949;-63
2021/03/30 02:41:53;;;;;;;5.13;3.67;;;9.50;98.30;;;;;;5053774;28;20220;-63
2021/03/30 02:44:20;;;;;;;4.43;3.80;;;9.60;98.40;;;;;;5053542;28;20425;-63
2021/03/30 02:46:48;;;;;;;4.83;4.30;;;9.60;98.30;;;;;;5053384;28;20497;-63
2021/03/30 02:49:16;;;;;;;7.70;4.40;;;9.50;98.50;;;;;;5053603;28;20495;-63
2021/03/30 02:51:44;;;;;;;5.33;4.03;;;9.50;98.60;;;;;;5053240;28;20448;-63
2021/03/30 02:54:10;;;;;;;4.00;3.50;;;9.50;98.60;;;;;;5052609;28;20438;-62
2021/03/30 02:56:36;;;;;;;6.40;3.70;;;9.50;98.40;;;;;;5053449;28;20402;-63
2021/03/30 02:59:04;;;;;;;6.93;4.90;;;9.40;98.90;;;;;;5053448;28;20449;-65
2021/03/30 03:01:32;;;;;;;6.40;4.00;;;9.40;99.00;;;;;;5053227;28;20409;-65
2021/03/30 03:04:00;;;;;;;5.17;3.80;;;9.40;99.00;;;;;;5053062;28;20418;-63
2021/03/30 03:06:26;;;;;;;6.07;4.30;;;9.30;99.10;;;;;;5053420;28;20405;-63
2021/03/30 03:08:52;;;;;;;7.87;5.00;;;9.40;99.60;;;;;;5052571;28;20489;-64
2021/03/30 03:11:19;;;;;;;5.50;5.00;;;9.30;99.20;;;;;;5035162;28;20441;-64
2021/03/30 03:13:47;;;;;;;7.67;5.00;;;9.20;99.40;;;;;;5052345;28;20432;-64
2021/03/30 03:16:13;;;;;;;7.50;4.87;;;9.20;99.70;;;;;;5053265;28;20435;-64
2021/03/30 03:18:41;;;;;;;4.80;4.03;;;9.20;99.90;;;;;;5053235;28;20427;-64
2021/03/30 03:21:09;;;;;;;6.50;4.70;;;9.10;99.90;;;;;;5053549;28;20939;-64
2021/03/30 03:23:39;;;;;;;7.03;4.43;;;9.10;99.90;;;;;;5052335;28;20434;-64
2021/03/30 03:26:14;;;;;;;8.13;4.60;;;9.10;99.90;;;;;;5053008;28;20402;-64
2021/03/30 03:28:41;;;;;;;4.80;3.83;;;9.10;99.90;;;;;;5053288;28;20870;-64
2021/03/30 03:31:07;;;;;;;11.50;4.67;;;9.00;99.90;;;;;;5049652;28;20456;-64
2021/03/30 03:33:32;;;;;;;8.23;4.67;;;9.10;99.90;;;;;;5046459;28;20440;-65
2021/03/30 03:36:10;;;;;;;5.43;4.50;;;9.10;99.90;;;;;;5033922;28;20243;-64
2021/03/30 03:38:37;;;;;;;4.10;3.70;;;9.00;99.90;;;;;;5032397;28;20791;-64
2021/03/30 03:41:08;;;;;;;4.90;3.80;;;8.90;99.90;;;;;;5032879;28;20482;-64
2021/03/30 03:43:34;;;;;;;5.53;4.10;;;8.90;99.90;;;;;;5041649;28;20449;-64
2021/03/30 03:46:00;;;;;;;8.67;5.13;;;8.80;99.90;;;;;;5052469;28;20460;-64
2021/03/30 03:48:26;;;;;;;10.40;4.67;;;8.80;99.90;;;;;;5052362;28;20429;-64
2021/03/30 03:50:56;;;;;;;6.47;4.57;;;8.90;99.90;;;;;;5052643;28;20404;-64
2021/03/30 03:53:23;;;;;;;5.33;3.97;;;8.90;99.90;;;;;;5053229;28;20620;-64
2021/03/30 03:55:52;;;;;;;5.53;3.43;;;8.90;99.90;;;;;;5052672;28;20456;-64
2021/03/30 03:58:23;;;;;;;6.00;4.30;;;8.90;99.90;;;;;;5053203;28;20431;-64
2021/03/30 04:00:48;;;;;;;4.70;3.57;;;8.80;99.90;;;;;;5054256;28;20391;-64
2021/03/30 04:03:21;;;;;;;6.30;3.63;;;8.70;99.90;;;;;;5052269;28;20398;-64
2021/03/30 04:05:56;;;;;;;4.30;3.60;;;8.80;99.90;;;;;;5052801;28;20248;-64
2021/03/30 04:08:24;;;;;;;4.60;3.70;;;8.90;99.90;;;;;;5052612;28;20417;-64
2021/03/30 04:10:50;;;;;;;5.37;4.40;;;8.90;99.90;;;;;;5052471;28;20392;-64
2021/03/30 04:13:17;;;;;;;6.00;4.17;;;8.80;99.90;;;;;;5052741;28;20459;-63
2021/03/30 04:15:43;;;;;;;10.40;3.77;;;8.80;99.90;;;;;;5052781;28;20414;-64
2021/03/30 04:18:09;;;;;;;6.53;5.03;;;8.80;99.90;;;;;;5051975;28;20405;-63
2021/03/30 04:20:35;;;;;;;8.13;4.93;;;8.80;99.90;;;;;;5052755;28;20913;-64
2021/03/30 04:23:01;;;;;;;5.30;4.37;;;8.70;99.90;;;;;;5052711;28;20485;-64
2021/03/30 04:25:28;;;;;;;5.27;4.70;;;8.80;99.90;;;;;;5054766;28;20195;-64
2021/03/30 04:27:54;;;;;;;7.40;4.80;;;8.60;99.90;;;;;;5056294;28;20757;-61
2021/03/30 04:30:22;;;;;;;6.63;5.00;;;8.50;99.90;;;;;;5038100;28;20855;-64
2021/03/30 04:32:48;;;;;;;5.27;4.73;;;8.40;99.90;;;;;;5055350;28;20461;-64
2021/03/30 04:35:14;;;;;;;6.03;4.50;;;8.40;99.90;;;;;;5055818;28;20449;-64
2021/03/30 04:37:40;;;;;;;6.43;5.00;;;8.50;99.90;;;;;;5055909;28;20172;-64
2021/03/30 04:40:10;;;;;;;7.60;4.87;;;8.50;99.90;;;;;;5055803;28;20816;-64
2021/03/30 04:42:37;;;;;;;9.87;5.00;;;8.50;99.90;;;;;;5056096;28;20469;-64
2021/03/30 04:45:05;;;;;;;6.33;4.30;;;8.50;99.90;;;;;;5056264;28;20444;-64
2021/03/30 04:47:31;;;;;;;7.60;5.47;;;8.40;99.90;;;;;;5055273;28;20413;-64
2021/03/30 04:49:56;;;;;;;6.70;4.50;;;8.40;99.90;;;;;;5055086;28;20915;-64
2021/03/30 04:52:22;;;;;;;10.13;5.53;;;8.40;99.90;;;;;;5055805;28;20225;-64
2021/03/30 04:54:47;;;;;;;5.70;4.30;;;8.40;99.90;;;;;;5055579;28;20187;-64
2021/03/30 04:57:13;;;;;;;5.93;5.33;;;8.30;99.90;;;;;;5055507;28;20163;-64
2021/03/30 04:59:39;;;;;;;4.40;3.90;;;8.20;99.90;;;;;;5055354;28;20167;-64
2021/03/30 05:02:05;;;;;;;6.83;4.80;;;8.20;99.90;;;;;;5055598;28;20166;-64
2021/03/30 05:04:30;;;;;;;5.00;3.83;;;8.30;99.90;;;;;;5054724;28;20235;-63
2021/03/30 05:06:56;;;;;;;6.37;4.43;;;8.30;99.90;;;;;;5055806;28;20465;-64
2021/03/30 05:09:22;;;;;;;6.03;3.93;;;8.40;99.90;;;;;;5055496;28;20636;-64
2021/03/30 05:11:47;;;;;;;4.83;3.57;;;8.40;99.90;;;;;;5054956;28;20240;-64
2021/03/30 05:14:13;;;;;;;7.37;3.70;;;8.50;99.90;;;;;;5055131;28;20195;-64
2021/03/30 05:16:38;;;;;;;5.50;4.30;;;8.40;99.90;;;;;;5055328;28;20169;-64
2021/03/30 05:19:04;;;;;;;5.40;3.87;;;8.50;99.90;;;;;;5054621;28;20245;-64
2021/03/30 05:21:29;;;;;;;6.33;4.20;;;8.50;99.90;;;;;;5055010;28;20587;-64
2021/03/30 05:23:55;;;;;;;7.23;4.70;;;8.60;99.90;;;;;;5054873;28;20201;-64
2021/03/30 05:26:21;;;;;;;5.10;4.40;;;8.60;99.90;;;;;;5054862;28;20632;-64
2021/03/30 05:28:47;;;;;;;5.27;4.13;;;8.50;99.90;;;;;;5036852;28;20175;-64
2021/03/30 05:31:12;;;;;;;5.67;4.17;;;8.50;99.90;;;;;;5054604;28;20782;-64
2021/03/30 05:33:38;;;;;;;6.37;4.50;;;8.30;99.90;;;;;;5054158;28;20196;-63
2021/03/30 05:36:04;;;;;;;6.30;4.50;;;8.30;99.90;;;;;;5053989;28;20167;-63
2021/03/30 05:38:29;;;;;;;6.23;4.63;;;8.30;99.90;;;;;;5054629;28;20216;-64
2021/03/30 05:40:55;;;;;;;6.47;4.30;;;8.30;99.90;;;;;;5054870;28;20442;-64
2021/03/30 05:43:22;;;;;;;5.73;4.73;;;8.40;99.90;;;;;;5054712;28;20659;-64
2021/03/30 05:45:47;;;;;;;7.57;4.67;;;8.40;99.90;;;;;;5054319;28;20413;-64
2021/03/30 05:48:16;;;;;;;5.87;4.97;;;8.30;99.90;;;;;;5053753;28;20547;-64
2021/03/30 05:50:43;;;;;;;6.13;3.90;;;8.40;99.90;;;;;;5057175;28;20409;-64
2021/03/30 05:53:10;;;;;;;4.90;4.33;;;8.50;99.90;;;;;;5054181;28;20462;-64
2021/03/30 05:55:43;;;;;;;9.90;5.60;;;8.60;99.90;;;;;;5054230;28;20495;-64
2021/03/30 05:58:09;;;;;;;7.93;5.70;;;8.60;99.90;;;;;;5054598;28;20488;-64
2021/03/30 06:00:42;;;;;;;11.10;5.70;;;8.70;99.90;;;;;;5054427;28;20411;-64
2021/03/30 06:03:10;;;;;;;14.17;6.83;;;8.70;99.90;;;;;;5054051;28;20491;-64
2021/03/30 06:05:36;;;;;;;9.10;6.20;;;8.80;99.90;;;;;;5036067;28;20437;-64
2021/03/30 06:08:03;;;;;;;8.23;6.20;;;8.90;99.90;;;;;;5054348;28;20937;-64
2021/03/30 06:10:31;;;;;;;9.53;5.90;;;8.90;99.90;;;;;;5053836;28;20429;-64
2021/03/30 06:13:02;;;;;;;7.27;6.57;;;8.90;99.90;;;;;;5054242;28;20507;-64
2021/03/30 06:15:32;;;;;;;8.47;5.63;;;8.90;99.90;;;;;;5053889;28;20421;-64
2021/03/30 06:17:59;;;;;;;10.80;5.30;;;8.90;99.90;;;;;;5053858;28;21020;-64
2021/03/30 06:20:34;;;;;;;8.57;6.10;;;8.90;99.90;;;;;;5053904;28;20412;-64
2021/03/30 06:23:04;;;;;;;8.33;5.40;;;8.90;99.90;;;;;;5054005;28;20427;-64
2021/03/30 06:25:49;;;;;;;8.10;5.57;;;8.90;99.90;;;;;;5049510;28;20487;-64
2021/03/30 06:28:18;;;;;;;6.80;4.57;;;9.10;99.90;;;;;;5049151;28;20889;-64
2021/03/30 06:31:08;;;;;;;10.00;5.33;;;9.20;99.90;;;;;;5053814;28;20405;-64
2021/03/30 06:33:43;;;;;;;7.53;5.10;;;9.40;99.90;;;;;;5052686;28;20972;-64
2021/03/30 06:36:33;;;;;;;7.43;5.43;;;9.50;99.90;;;;;;5053924;28;20401;-65
2021/03/30 06:39:04;;;;;;;7.80;5.50;;;9.60;99.90;;;;;;5053683;28;20453;-65
2021/03/30 06:42:28;;;;;;;9.20;6.33;;;9.70;99.90;;;;;;5053749;28;20387;-65
2021/03/30 06:44:35;;;;;;;6.97;5.53;;;9.80;99.90;;;;;;5027617;28;20439;-63
2021/03/30 06:47:02;;;;;;;5.87;5.27;;;9.90;99.50;;;;;;5033566;28;20398;-64
2021/03/30 06:49:31;;;;;;;8.20;5.47;;;10.00;98.80;;;;;;5032203;28;20456;-66
2021/03/30 06:51:58;;;;;;;7.53;6.20;;;10.20;98.60;;;;;;5033131;28;20985;-66
2021/03/30 06:54:24;;;;;;;7.70;4.93;;;10.30;98.10;;;;;;5041044;28;20526;-66
2021/03/30 06:56:58;;;;;;;9.10;6.33;;;10.40;97.90;;;;;;5053155;28;20424;-66
2021/03/30 06:59:24;;;;;;;7.03;5.43;;;10.60;98.00;;;;;;5053411;28;20911;-66
2021/03/30 07:01:55;;;;;;;7.90;6.37;;;10.70;98.00;;;;;;5053150;28;20507;-66
2021/03/30 07:04:21;;;;;;;6.97;5.37;;;10.90;97.70;;;;;;5053093;28;20827;-63
2021/03/30 07:06:54;;;;;;;6.57;5.77;;;11.00;97.80;;;;;;5053477;28;20776;-64
2021/03/30 07:09:21;;;;;;;8.43;6.30;;;11.10;97.80;;;;;;5052645;28;20416;-64
2021/03/30 07:11:47;;;;;;;7.80;6.23;;;11.20;97.70;;;;;;5053189;28;20541;-66
2021/03/30 07:14:13;;;;;;;6.20;5.60;;;11.40;97.60;;;;;;5053659;28;20471;-64
2021/03/30 07:16:55;;;;;;;7.70;6.33;;;11.50;97.30;;;;;;5053387;28;20450;-64
2021/03/30 07:19:26;;;;;;;8.60;5.97;;;11.70;97.00;;;;;;5053317;28;20388;-65
2021/03/30 07:22:09;;;;;;;9.33;6.70;;;11.80;96.40;;;;;;5053255;28;20804;-64
2021/03/30 07:24:52;;;;;;;9.30;6.37;;;12.00;95.80;;;;;;5052369;28;20535;-64
2021/03/30 07:27:23;;;;;;;12.73;7.23;;;12.20;95.30;;;;;;5053259;28;20423;-64
2021/03/30 07:29:50;;;;;;;9.50;6.77;;;12.30;95.00;;;;;;5052969;28;20388;-64
2021/03/30 07:32:34;;;;;;;13.83;7.77;;;12.40;94.70;;;;;;5052775;28;20452;-64
2021/03/30 07:35:04;;;;;;;15.80;7.27;;;12.50;94.20;;;;;;5047972;28;20456;-64
2021/03/30 07:37:34;;;;;;;12.50;7.87;;;12.70;94.50;;;;;;5052891;28;20422;-64
2021/03/30 07:40:01;;;;;;;10.47;7.07;;;12.80;94.50;;;;;;5052802;28;20780;-66
2021/03/30 07:42:28;;;;;;;11.90;7.20;;;12.90;94.40;;;;;;5053021;28;20408;-65
2021/03/30 07:44:56;;;;;;;17.70;8.27;;;13.10;94.10;;;;;;5053008;28;20459;-65
2021/03/30 07:47:22;;;;;;;13.23;7.10;;;13.20;93.80;;;;;;5052786;28;20487;-65
2021/03/30 07:49:50;;;;;;;14.20;6.73;;;13.30;93.50;;;;;;5051803;28;20474;-65
2021/03/30 07:52:17;;;;;;;11.67;6.50;;;13.40;92.70;;;;;;5052649;28;20982;-65
2021/03/30 07:55:22;;;;;;;10.10;7.13;;;13.50;92.00;;;;;;5051516;28;20433;-65
2021/03/30 07:58:01;;;;;;;8.17;5.70;;;13.60;91.70;;;;;;5054675;28;20498;-65
2021/03/30 08:00:32;;;;;;;7.57;6.50;;;13.70;91.30;;;;;;5055854;28;20398;-65
2021/03/30 08:03:10;;;;;;;11.23;7.10;;;13.60;91.40;;;;;;5056595;28;20970;-66
2021/03/30 08:05:37;;;;;;;10.73;8.20;;;13.50;92.20;;;;;;5038788;28;20405;-66
2021/03/30 08:08:20;;;;;;;12.20;8.53;;;13.60;92.20;;;;;;5056409;28;20460;-65
2021/03/30 08:10:47;;;;;;;11.07;7.97;;;13.60;92.60;;;;;;5056347;28;20464;-65
2021/03/30 08:13:30;;;;;;;10.30;8.43;;;13.60;92.70;;;;;;5056059;28;20449;-64
2021/03/30 08:16:06;;;;;;;9.03;7.87;;;13.60;92.80;;;;;;5056499;28;20406;-65
2021/03/30 08:18:35;;;;;;;11.77;8.30;;;13.80;92.80;;;;;;5056129;28;20408;-65
2021/03/30 08:21:14;;;;;;;10.27;8.20;;;13.80;92.80;;;;;;5056514;28;20401;-65
2021/03/30 08:23:52;;;;;;;12.47;9.00;;;14.00;92.60;;;;;;5056448;28;20420;-65
2021/03/30 08:26:30;;;;;;;12.80;8.67;;;14.00;92.70;;;;;;5036412;28;20406;-65
2021/03/30 08:29:18;;;;;;;11.77;9.23;;;14.10;92.50;;;;;;5018187;28;20485;-65
2021/03/30 08:31:53;;;;;;;15.20;9.47;;;14.30;92.50;;;;;;5035979;28;20436;-65
2021/03/30 08:34:26;;;;;;;12.30;9.40;;;14.50;92.30;;;;;;5061537;23;20563;-62
2021/03/30 08:36:56;;;;;;;11.97;8.37;;;14.60;92.10;;;;;;5056325;28;20546;-64
2021/03/30 08:39:22;;;;;;;12.27;9.40;;;14.60;91.90;;;;;;5056275;28;20417;-64
2021/03/30 08:41:48;;;;;;;13.30;7.90;;;14.70;91.80;;;;;;5056277;28;20487;-64
2021/03/30 08:44:18;;;;;;;12.67;9.10;;;14.70;92.00;;;;;;5056216;28;20270;-62
2021/03/30 08:46:52;;;;;;;11.17;7.90;;;14.80;92.10;;;;;;5053956;28;20460;-63
2021/03/30 08:49:26;;;;;;;13.73;7.30;;;14.80;91.90;;;;;;5054480;28;20405;-62
2021/03/30 08:51:56;;;;;;;11.03;7.63;;;14.90;91.90;;;;;;5055806;28;20533;-63
2021/03/30 08:54:27;;;;;;;9.50;7.67;;;15.00;91.70;;;;;;5056131;28;20459;-63
2021/03/30 08:56:58;;;;;;;12.10;8.60;;;15.20;91.40;;;;;;5056119;28;20412;-61
2021/03/30 08:59:27;;;;;;;9.50;7.13;;;15.30;91.30;;;;;;5055011;28;20446;-62
2021/03/30 09:02:07;;;;;;;13.40;8.90;;;15.40;90.90;;;;;;5055645;28;20836;-62
2021/03/30 09:04:39;;;;;;;8.70;7.30;;;15.60;90.90;;;;;;5055484;28;21030;-63
2021/03/30 09:07:06;;;;;;;10.97;7.70;;;15.50;90.60;;;;;;5056123;28;20758;-62
2021/03/30 09:09:36;;;;;;;16.10;8.83;;;15.50;90.80;;;;;;5055682;28;20406;-63
2021/03/30 09:12:19;;;;;;;11.43;8.30;;;15.70;90.70;;;;;;5054946;28;20447;-63
2021/03/30 09:15:04;;;;;;;11.00;7.47;;;15.70;90.40;;;;;;5056041;28;20524;-63
2021/03/30 09:17:30;;;;;;;11.13;7.40;;;15.90;90.30;;;;;;5055855;28;20898;-63
2021/03/30 09:19:57;;;;;;;12.23;7.00;;;16.00;90.00;;;;;;5053851;28;20415;-63
2021/03/30 09:27:33;;;;;;;12.60;7.17;;;16.40;88.80;;;;;;5054842;28;20400;-62
2021/03/30 09:30:02;;;;;;;11.07;7.97;;;16.50;88.70;;;;;;5035210;28;20394;-60
2021/03/30 09:32:29;;;;;;;10.23;7.67;;;16.70;88.20;;;;;;5017762;28;20452;-62
2021/03/30 09:35:14;;;;;;;10.10;7.43;;;16.90;87.70;;;;;;5037871;28;20459;-62
2021/03/30 09:37:43;;;;;;;13.23;7.13;;;17.20;87.40;;;;;;5037878;28;20415;-61
2021/03/30 09:40:12;;;;;;;10.17;6.93;;;17.20;85.90;;;;;;5036354;28;20396;-62
2021/03/30 09:42:42;;;;;;;11.83;7.50;;;17.20;85.20;;;;;;5036472;28;20432;-60
2021/03/30 09:45:14;;;;;;;10.37;7.00;;;17.40;85.70;;;;;;5035910;28;20960;-62
2021/03/30 09:47:40;;;;;;;9.93;6.90;;;17.60;85.40;;;;;;5037870;28;20394;-60
2021/03/30 09:50:08;;;;;;;9.80;6.80;;;17.80;84.90;;;;;;5056089;28;20436;-62
2021/03/30 09:52:38;;;;;;;10.50;7.20;;;17.90;83.80;;;;;;5054584;28;21017;-63
2021/03/30 09:55:05;;;;;;;11.63;6.97;;;18.00;83.40;;;;;;5054580;28;20429;-62
2021/03/30 09:57:32;;;;;;;10.97;6.83;;;18.20;83.00;;;;;;5054578;28;20402;-62
2021/03/30 09:59:59;;;;;;;11.93;7.77;;;18.30;81.40;;;;;;5034610;28;20406;-62
2021/03/30 10:02:30;;;;;;;12.33;7.80;;;18.40;81.50;;;;;;5034616;28;20396;-63
2021/03/30 10:04:58;;;;;;;9.13;7.17;;;18.60;80.20;;;;;;5034042;28;20527;-61
2021/03/30 10:07:31;;;;;;;11.33;7.53;;;18.60;79.50;;;;;;5034586;28;20416;-63
2021/03/30 10:09:58;;;;;;;16.17;7.77;;;18.80;78.80;;;;;;5034948;28;20750;-63
2021/03/30 10:12:47;;;;;;;14.20;7.70;;;18.90;78.90;;;;;;5034526;28;20552;-62
2021/03/30 10:15:12;;;;;;;13.13;7.40;;;19.10;77.60;;;;;;5034198;28;20426;-61
2021/03/30 10:17:39;;;;;;;10.60;6.80;;;19.20;75.60;;;;;;5034260;28;20452;-64
2021/03/30 10:20:06;;;;;;;9.93;7.37;;;19.20;74.60;;;;;;5034002;28;20178;-63
2021/03/30 10:22:34;;;;;;;12.30;7.20;;;19.40;74.60;;;;;;5034297;28;20898;-60
2021/03/30 10:25:16;;;;;;;10.37;7.10;;;19.50;72.10;;;;;;5033980;28;20438;-64
2021/03/30 10:27:50;;;;;;;7.00;6.20;;;19.50;70.70;;;;;;5035485;28;20392;-63
2021/03/30 10:30:17;;;;;;;12.63;7.03;;;19.60;69.90;;;;;;5054256;28;20836;-64
2021/03/30 10:32:49;;;;;;;9.90;6.33;;;19.70;70.10;;;;;;5053922;28;20530;-62
2021/03/30 10:35:15;;;;;;;9.07;6.47;;;19.90;70.10;;;;;;5053532;28;20983;-63
2021/03/30 10:37:42;;;;;;;11.60;6.40;;;20.10;69.20;;;;;;5054147;28;20408;-63
2021/03/30 10:40:09;;;;;;;9.43;6.60;;;20.20;66.50;;;;;;5054031;28;20500;-63
2021/03/30 10:42:39;;;;;;;7.93;6.43;;;20.30;65.60;;;;;;5053779;28;20496;-63
2021/03/30 10:45:10;;;;;;;11.27;6.90;;;20.40;65.10;;;;;;5053788;28;20559;-63
2021/03/30 10:47:41;;;;;;;7.37;5.70;;;20.50;65.10;;;;;;5053919;28;20413;-63
2021/03/30 10:50:12;;;;;;;8.10;6.03;;;20.60;63.10;;;;;;5053131;28;20439;-63
2021/03/30 10:52:39;;;;;;;10.87;6.23;;;20.70;61.80;;;;;;5053697;28;20949;-63
2021/03/30 10:55:11;;;;;;;7.30;5.43;;;20.70;61.60;;;;;;5053609;28;20421;-63
2021/03/30 10:57:42;;;;;;;7.10;6.40;;;21.30;60.50;;;;;;5053628;28;20420;-62
2021/03/30 11:00:10;;;;;;;7.17;5.53;;;22.40;57.60;;;;;;5053443;28;20447;-63
2021/03/30 11:02:36;;;;;;;6.20;5.20;;;23.20;54.80;;;;;;5054447;28;20976;-63
2021/03/30 11:05:02;;;;;;;9.27;5.30;;;24.30;52.40;;;;;;5039802;28;20469;-63
2021/03/30 11:07:28;;;;;;;6.43;4.67;;;24.80;52.20;;;;;;5051747;28;20413;-63
2021/03/30 11:09:54;;;;;;;6.07;4.70;;;25.30;49.10;;;;;;5054127;28;20411;-62
2021/03/30 11:12:19;;;;;;;5.07;3.97;;;25.20;48.20;;;;;;5053203;28;20194;-63
2021/03/30 11:14:45;;;;;;;6.60;4.73;;;25.80;46.00;;;;;;5053478;28;20425;-63
2021/03/30 11:17:10;;;;;;;10.10;4.23;;;26.50;44.30;;;;;;5053231;28;20343;-63
2021/03/30 11:19:36;;;;;;;7.10;4.90;;;27.20;42.80;;;;;;5052794;28;20562;-63
2021/03/30 11:22:04;;;;;;;5.73;4.23;;;27.30;41.20;;;;;;5053440;28;20262;-64
2021/03/30 11:24:34;;;;;;;6.93;4.27;;;28.10;40.30;;;;;;5052915;28;20221;-63
2021/03/30 11:26:59;;;;;;;5.47;3.63;;;29.30;38.00;;;;;;5053177;28;20527;-63
2021/03/30 11:36:59;;;;;;;7.70;4.53;;;30.20;35.50;;;;;;5057409;28;20404;-64
2021/03/30 11:39:25;;;;;;;6.63;3.90;;;31.70;34.10;;;;;;5057353;28;20161;-63
2021/03/30 11:41:50;;;;;;;5.23;4.30;;;29.90;34.50;;;;;;5057633;28;20401;-64
2021/03/30 11:44:16;;;;;;;5.07;4.57;;;29.90;34.30;;;;;;5057050;28;20252;-64
2021/03/30 11:46:41;;;;;;;4.53;4.10;;;31.00;32.70;;;;;;5057286;28;20170;-64
2021/03/30 11:49:07;;;;;;;5.70;3.73;;;31.20;33.20;;;;;;5055812;28;20542;-64
2021/03/30 11:51:33;;;;;;;3.93;3.53;;;32.50;31.60;;;;;;5059424;28;20245;-64
2021/03/30 11:53:59;;;;;;;5.60;3.73;;;33.10;31.80;;;;;;5056727;28;20171;-64
2021/03/30 11:56:24;;;;;;;4.97;3.80;;;33.40;30.00;;;;;;5037819;28;20221;-64
2021/03/30 11:58:50;;;;;;;4.90;4.20;;;33.40;29.70;;;;;;5057570;28;20169;-64
2021/03/30 12:01:15;;;;;;;4.90;3.60;;;33.00;29.70;;;;;;5056833;28;20166;-64
2021/03/30 12:03:41;;;;;;;4.93;3.73;;;32.70;29.10;;;;;;5057183;28;20178;-64
2021/03/30 12:06:07;;;;;;;4.47;3.30;;;32.00;30.00;;;;;;5056957;28;20659;-64
2021/03/30 12:08:36;;;;;;;4.17;3.77;;;32.40;31.00;;;;;;5056851;28;20178;-64
2021/03/30 12:11:02;;;;;;;6.43;3.57;;;33.80;30.40;;;;;;5055098;28;20177;-63
2021/03/30 12:13:27;;;;;;;4.30;3.37;;;33.40;27.60;;;;;;5056449;28;20421;-64
2021/03/30 12:15:54;;;;;;;4.17;3.77;;;34.40;27.80;;;;;;5056357;28;20437;-64
2021/03/30 12:18:19;;;;;;;5.30;4.53;;;34.40;26.30;;;;;;5056361;28;20175;-64
2021/03/30 12:20:45;;;;;;;4.57;3.47;;;33.10;24.90;;;;;;5056649;28;20928;-65
2021/03/30 12:23:10;;;;;;;3.70;3.23;;;33.40;24.60;;;;;;5057079;28;20727;-64
2021/03/30 12:25:36;;;;;;;6.80;3.10;;;33.20;24.90;;;;;;5055989;28;20629;-63
2021/03/30 12:28:02;;;;;;;4.47;3.53;;;33.70;25.30;;;;;;5056798;28;20254;-64
2021/03/30 12:30:28;;;;;;;4.40;3.00;;;33.50;26.60;;;;;;5056445;28;20175;-64
2021/03/30 12:32:53;;;;;;;3.43;3.13;;;33.40;25.50;;;;;;5056326;28;20286;-63
2021/03/30 12:35:19;;;;;;;3.77;3.23;;;34.90;25.40;;;;;;5056059;28;20206;-63
2021/03/30 12:37:45;;;;;;;4.27;3.87;;;34.70;25.20;;;;;;5057235;28;20178;-63
2021/03/30 12:40:10;;;;;;;4.80;3.07;;;33.80;25.50;;;;;;5060248;28;20175;-63
2021/03/30 12:42:36;;;;;;;3.90;3.10;;;33.90;25.10;;;;;;5059019;28;20182;-63
2021/03/30 12:45:02;;;;;;;4.00;3.13;;;33.20;25.70;;;;;;5060120;28;20219;-63
2021/03/30 12:47:27;;;;;;;3.73;3.30;;;33.90;25.60;;;;;;5060800;28;20174;-63
2021/03/30 12:49:53;;;;;;;4.97;4.00;;;33.40;26.50;;;;;;5058887;28;20178;-63
2021/03/30 12:52:19;;;;;;;4.00;3.60;;;32.50;26.60;;;;;;5055468;28;20195;-63
2021/03/30 12:54:44;;;;;;;4.10;3.70;;;32.40;26.80;;;;;;5055195;28;20186;-63
2021/03/30 12:57:10;;;;;;;5.57;3.60;;;32.20;27.10;;;;;;5055859;28;20182;-65
2021/03/30 12:59:36;;;;;;;5.03;4.13;;;31.90;27.20;;;;;;5054978;28;20171;-63
2021/03/30 13:02:01;;;;;;;5.97;3.77;;;31.80;27.40;;;;;;5055713;28;20194;-64
2021/03/30 13:04:27;;;;;;;4.37;3.93;;;32.90;26.90;;;;;;5055876;28;20186;-64
2021/03/30 13:06:52;;;;;;;6.63;4.50;;;33.90;26.30;;;;;;5055736;28;20167;-64
2021/03/30 13:09:18;;;;;;;4.23;3.70;;;33.40;26.50;;;;;;5055908;28;20174;-65
2021/03/30 13:11:44;;;;;;;8.23;4.27;;;33.30;26.00;;;;;;5055300;28;20198;-63
2021/03/30 13:14:09;;;;;;;7.87;4.67;;;33.10;26.60;;;;;;5055829;28;20678;-63